sensor_id;sensor_type;location;lat;lon;timestamp;P1;durP1;ratioP1;P2;durP2;ratioP2
25637;SDS011;13496;51.040;13.680;2023-04-01T00:02:52;1.87;;;1.10;;
25637;SDS011;13496;51.040;13.680;2023-04-01T00:07:54;1.03;;;0.90;;
25637;SDS011;13496;51.040;13.680;2023-04-01T00:12:55;1.42;;;1.00;;
25637;SDS011;13496;51.040;13.680;2023-04-01T00:17:57;1.70;;;1.00;;
25637;SDS011;13496;51.040;13.680;2023-04-01T00:23:00;0.80;;;0.80;;
25637;SDS011;13496;51.040;13.680;2023-04-01T00:28:01;1.00;;;0.90;;
25637;SDS011;13496;51.040;13.680;2023-04-01T00:33:03;0.97;;;0.80;;
25637;SDS011;13496;51.040;13.680;2023-04-01T00:38:05;0.90;;;0.90;;
25637;SDS011;13496;51.040;13.680;2023-04-01T00:43:10;1.30;;;1.03;;
25637;SDS011;13496;51.040;13.680;2023-04-01T00:48:19;1.23;;;1.13;;
25637;SDS011;13496;51.040;13.680;2023-04-01T00:53:23;0.77;;;0.73;;
25637;SDS011;13496;51.040;13.680;2023-04-01T00:58:25;1.00;;;0.83;;
25637;SDS011;13496;51.040;13.680;2023-04-01T01:03:30;1.00;;;0.90;;
25637;SDS011;13496;51.040;13.680;2023-04-01T01:14:01;0.90;;;0.90;;
25637;SDS011;13496;51.040;13.680;2023-04-01T01:25:25;1.10;;;1.00;;
25637;SDS011;13496;51.040;13.680;2023-04-01T01:30:51;1.00;;;1.00;;
25637;SDS011;13496;51.040;13.680;2023-04-01T01:36:04;0.83;;;0.83;;
25637;SDS011;13496;51.040;13.680;2023-04-01T01:41:12;1.30;;;1.03;;
25637;SDS011;13496;51.040;13.680;2023-04-01T01:46:19;0.93;;;0.80;;
25637;SDS011;13496;51.040;13.680;2023-04-01T01:51:23;0.70;;;0.70;;
25637;SDS011;13496;51.040;13.680;2023-04-01T01:56:27;0.80;;;0.80;;
25637;SDS011;13496;51.040;13.680;2023-04-01T02:01:31;0.80;;;0.80;;
25637;SDS011;13496;51.040;13.680;2023-04-01T02:06:53;1.07;;;0.80;;
25637;SDS011;13496;51.040;13.680;2023-04-01T02:12:04;0.90;;;0.80;;
25637;SDS011;13496;51.040;13.680;2023-04-01T02:17:17;2.03;;;0.83;;
25637;SDS011;13496;51.040;13.680;2023-04-01T02:22:22;0.73;;;0.73;;
25637;SDS011;13496;51.040;13.680;2023-04-01T02:27:26;0.83;;;0.83;;
25637;SDS011;13496;51.040;13.680;2023-04-01T02:32:28;1.13;;;1.03;;
25637;SDS011;13496;51.040;13.680;2023-04-01T02:37:32;1.00;;;1.00;;
25637;SDS011;13496;51.040;13.680;2023-04-01T02:42:34;1.00;;;0.90;;
25637;SDS011;13496;51.040;13.680;2023-04-01T02:47:35;1.20;;;0.97;;
25637;SDS011;13496;51.040;13.680;2023-04-01T02:52:37;0.97;;;0.90;;
25637;SDS011;13496;51.040;13.680;2023-04-01T02:57:39;0.87;;;0.83;;
25637;SDS011;13496;51.040;13.680;2023-04-01T03:02:41;0.80;;;0.80;;
25637;SDS011;13496;51.040;13.680;2023-04-01T03:07:43;1.13;;;0.87;;
25637;SDS011;13496;51.040;13.680;2023-04-01T03:12:45;0.80;;;0.80;;
25637;SDS011;13496;51.040;13.680;2023-04-01T03:17:47;1.10;;;0.90;;
25637;SDS011;13496;51.040;13.680;2023-04-01T03:22:49;0.90;;;0.80;;
25637;SDS011;13496;51.040;13.680;2023-04-01T03:27:51;0.70;;;0.70;;
25637;SDS011;13496;51.040;13.680;2023-04-01T03:32:52;0.83;;;0.83;;
25637;SDS011;13496;51.040;13.680;2023-04-01T03:37:54;0.97;;;0.80;;
25637;SDS011;13496;51.040;13.680;2023-04-01T03:42:56;0.80;;;0.80;;
25637;SDS011;13496;51.040;13.680;2023-04-01T03:47:57;0.67;;;0.67;;
25637;SDS011;13496;51.040;13.680;2023-04-01T03:52:59;0.80;;;0.80;;
25637;SDS011;13496;51.040;13.680;2023-04-01T03:58:01;0.60;;;0.60;;
25637;SDS011;13496;51.040;13.680;2023-04-01T04:03:03;0.70;;;0.70;;
25637;SDS011;13496;51.040;13.680;2023-04-01T04:08:08;0.77;;;0.77;;
25637;SDS011;13496;51.040;13.680;2023-04-01T04:13:10;0.77;;;0.77;;
25637;SDS011;13496;51.040;13.680;2023-04-01T04:18:19;0.70;;;0.70;;
25637;SDS011;13496;51.040;13.680;2023-04-01T04:23:21;0.70;;;0.70;;
25637;SDS011;13496;51.040;13.680;2023-04-01T04:28:23;0.70;;;0.70;;
25637;SDS011;13496;51.040;13.680;2023-04-01T04:33:26;0.60;;;0.60;;
25637;SDS011;13496;51.040;13.680;2023-04-01T04:38:29;0.67;;;0.67;;
25637;SDS011;13496;51.040;13.680;2023-04-01T04:43:30;0.90;;;0.77;;
25637;SDS011;13496;51.040;13.680;2023-04-01T04:48:32;0.70;;;0.70;;
25637;SDS011;13496;51.040;13.680;2023-04-01T04:53:34;0.93;;;0.70;;
25637;SDS011;13496;51.040;13.680;2023-04-01T04:58:36;1.23;;;0.80;;
25637;SDS011;13496;51.040;13.680;2023-04-01T05:03:41;0.70;;;0.60;;
25637;SDS011;13496;51.040;13.680;2023-04-01T05:08:44;0.70;;;0.70;;
25637;SDS011;13496;51.040;13.680;2023-04-01T05:13:46;0.90;;;0.63;;
25637;SDS011;13496;51.040;13.680;2023-04-01T05:18:48;0.90;;;0.70;;
25637;SDS011;13496;51.040;13.680;2023-04-01T05:23:50;0.70;;;0.70;;
25637;SDS011;13496;51.040;13.680;2023-04-01T05:28:52;0.50;;;0.50;;
25637;SDS011;13496;51.040;13.680;2023-04-01T05:33:54;0.80;;;0.70;;
25637;SDS011;13496;51.040;13.680;2023-04-01T05:38:56;1.60;;;0.70;;
25637;SDS011;13496;51.040;13.680;2023-04-01T05:43:59;1.27;;;0.63;;
25637;SDS011;13496;51.040;13.680;2023-04-01T05:49:21;1.65;;;0.82;;
25637;SDS011;13496;51.040;13.680;2023-04-01T05:54:24;1.07;;;0.70;;
25637;SDS011;13496;51.040;13.680;2023-04-01T05:59:26;0.60;;;0.50;;
25637;SDS011;13496;51.040;13.680;2023-04-01T06:04:28;1.07;;;0.80;;
25637;SDS011;13496;51.040;13.680;2023-04-01T06:09:36;0.77;;;0.60;;
25637;SDS011;13496;51.040;13.680;2023-04-01T06:20:12;0.80;;;0.80;;
25637;SDS011;13496;51.040;13.680;2023-04-01T06:30:47;0.70;;;0.70;;
25637;SDS011;13496;51.040;13.680;2023-04-01T06:46:26;0.60;;;0.60;;
25637;SDS011;13496;51.040;13.680;2023-04-01T06:57:54;0.67;;;0.67;;
25637;SDS011;13496;51.040;13.680;2023-04-01T07:03:02;0.53;;;0.53;;
25637;SDS011;13496;51.040;13.680;2023-04-01T07:08:21;0.67;;;0.67;;
25637;SDS011;13496;51.040;13.680;2023-04-01T07:19:05;0.77;;;0.77;;
25637;SDS011;13496;51.040;13.680;2023-04-01T07:24:27;1.10;;;1.00;;
25637;SDS011;13496;51.040;13.680;2023-04-01T07:29:39;0.80;;;0.70;;
25637;SDS011;13496;51.040;13.680;2023-04-01T07:50:29;1.60;;;0.90;;
25637;SDS011;13496;51.040;13.680;2023-04-01T07:55:59;0.80;;;0.80;;
25637;SDS011;13496;51.040;13.680;2023-04-01T08:06:40;0.80;;;0.80;;
25637;SDS011;13496;51.040;13.680;2023-04-01T08:22:50;1.10;;;1.00;;
25637;SDS011;13496;51.040;13.680;2023-04-01T08:28:09;1.30;;;1.00;;
25637;SDS011;13496;51.040;13.680;2023-04-01T08:38:29;1.03;;;0.70;;
25637;SDS011;13496;51.040;13.680;2023-04-01T09:11:52;34.47;;;6.47;;
25637;SDS011;13496;51.040;13.680;2023-04-01T09:27:45;36.38;;;8.15;;
25637;SDS011;13496;51.040;13.680;2023-04-01T09:44:01;29.77;;;6.43;;
25637;SDS011;13496;51.040;13.680;2023-04-01T09:49:42;25.08;;;6.15;;
25637;SDS011;13496;51.040;13.680;2023-04-01T09:55:35;18.98;;;4.75;;
25637;SDS011;13496;51.040;13.680;2023-04-01T10:00:50;24.23;;;4.65;;
25637;SDS011;13496;51.040;13.680;2023-04-01T10:28:23;16.10;;;4.70;;
25637;SDS011;13496;51.040;13.680;2023-04-01T11:34:27;13.77;;;4.38;;
25637;SDS011;13496;51.040;13.680;2023-04-01T11:45:36;8.32;;;3.55;;
25637;SDS011;13496;51.040;13.680;2023-04-01T11:56:23;8.50;;;3.22;;
25637;SDS011;13496;51.040;13.680;2023-04-01T12:06:52;11.43;;;3.95;;
25637;SDS011;13496;51.040;13.680;2023-04-01T12:18:10;12.10;;;4.72;;
25637;SDS011;13496;51.040;13.680;2023-04-01T12:23:22;16.80;;;4.85;;
25637;SDS011;13496;51.040;13.680;2023-04-01T12:45:34;8.40;;;3.70;;
25637;SDS011;13496;51.040;13.680;2023-04-01T13:12:50;26.75;;;5.85;;
25637;SDS011;13496;51.040;13.680;2023-04-01T13:18:12;22.63;;;5.05;;
25637;SDS011;13496;51.040;13.680;2023-04-01T13:23:32;22.02;;;4.78;;
25637;SDS011;13496;51.040;13.680;2023-04-01T13:28:37;21.35;;;5.68;;
25637;SDS011;13496;51.040;13.680;2023-04-01T13:34:46;16.83;;;5.20;;
25637;SDS011;13496;51.040;13.680;2023-04-01T13:44:53;17.25;;;5.35;;
25637;SDS011;13496;51.040;13.680;2023-04-01T13:50:05;16.20;;;4.57;;
25637;SDS011;13496;51.040;13.680;2023-04-01T14:00:53;26.92;;;6.50;;
25637;SDS011;13496;51.040;13.680;2023-04-01T14:11:11;16.90;;;4.80;;
25637;SDS011;13496;51.040;13.680;2023-04-01T14:21:41;11.57;;;4.18;;
25637;SDS011;13496;51.040;13.680;2023-04-01T14:26:55;72.95;;;10.32;;
25637;SDS011;13496;51.040;13.680;2023-04-01T14:32:28;38.03;;;7.32;;
25637;SDS011;13496;51.040;13.680;2023-04-01T14:43:21;17.95;;;5.28;;
25637;SDS011;13496;51.040;13.680;2023-04-01T14:48:28;36.22;;;8.15;;
25637;SDS011;13496;51.040;13.680;2023-04-01T14:53:36;30.15;;;6.45;;
25637;SDS011;13496;51.040;13.680;2023-04-01T15:03:55;16.75;;;5.50;;
25637;SDS011;13496;51.040;13.680;2023-04-01T15:19:31;38.03;;;8.55;;
25637;SDS011;13496;51.040;13.680;2023-04-01T15:30:44;35.17;;;7.93;;
25637;SDS011;13496;51.040;13.680;2023-04-01T15:41:14;28.90;;;6.03;;
25637;SDS011;13496;51.040;13.680;2023-04-01T15:46:41;25.33;;;5.35;;
25637;SDS011;13496;51.040;13.680;2023-04-01T15:51:54;22.02;;;5.82;;
25637;SDS011;13496;51.040;13.680;2023-04-01T15:57:25;16.98;;;5.50;;
25637;SDS011;13496;51.040;13.680;2023-04-01T16:18:35;50.08;;;10.02;;
25637;SDS011;13496;51.040;13.680;2023-04-01T16:23:50;31.80;;;7.63;;
25637;SDS011;13496;51.040;13.680;2023-04-01T16:29:05;31.58;;;6.68;;
25637;SDS011;13496;51.040;13.680;2023-04-01T16:39:49;26.00;;;6.80;;
25637;SDS011;13496;51.040;13.680;2023-04-01T16:50:21;17.88;;;4.97;;
25637;SDS011;13496;51.040;13.680;2023-04-01T16:55:41;17.20;;;4.93;;
25637;SDS011;13496;51.040;13.680;2023-04-01T17:00:51;18.65;;;5.18;;
25637;SDS011;13496;51.040;13.680;2023-04-01T17:16:43;21.02;;;5.53;;
25637;SDS011;13496;51.040;13.680;2023-04-01T17:43:35;13.57;;;5.20;;
25637;SDS011;13496;51.040;13.680;2023-04-01T17:54:32;9.93;;;4.25;;
25637;SDS011;13496;51.040;13.680;2023-04-01T18:21:10;11.98;;;4.93;;
25637;SDS011;13496;51.040;13.680;2023-04-01T18:26:26;10.60;;;4.10;;
25637;SDS011;13496;51.040;13.680;2023-04-01T18:31:40;11.73;;;4.30;;
25637;SDS011;13496;51.040;13.680;2023-04-01T18:36:53;8.75;;;4.25;;
25637;SDS011;13496;51.040;13.680;2023-04-01T18:47:25;7.10;;;4.53;;
25637;SDS011;13496;51.040;13.680;2023-04-01T18:52:40;10.65;;;4.80;;
25637;SDS011;13496;51.040;13.680;2023-04-01T18:57:51;11.60;;;4.70;;
25637;SDS011;13496;51.040;13.680;2023-04-01T19:02:58;7.28;;;3.67;;
25637;SDS011;13496;51.040;13.680;2023-04-01T19:08:27;9.90;;;3.88;;
25637;SDS011;13496;51.040;13.680;2023-04-01T19:13:44;9.00;;;4.22;;
25637;SDS011;13496;51.040;13.680;2023-04-01T19:19:14;8.63;;;4.15;;
25637;SDS011;13496;51.040;13.680;2023-04-01T19:35:41;6.65;;;4.00;;
25637;SDS011;13496;51.040;13.680;2023-04-01T19:40:58;6.35;;;3.63;;
25637;SDS011;13496;51.040;13.680;2023-04-01T19:46:36;8.60;;;3.60;;
25637;SDS011;13496;51.040;13.680;2023-04-01T19:52:00;9.50;;;4.00;;
25637;SDS011;13496;51.040;13.680;2023-04-01T20:02:34;6.78;;;4.35;;
25637;SDS011;13496;51.040;13.680;2023-04-01T20:07:41;7.28;;;4.05;;
25637;SDS011;13496;51.040;13.680;2023-04-01T20:17:56;5.55;;;3.30;;
25637;SDS011;13496;51.040;13.680;2023-04-01T20:39:00;5.97;;;3.50;;
25637;SDS011;13496;51.040;13.680;2023-04-01T20:49:59;5.43;;;3.55;;
25637;SDS011;13496;51.040;13.680;2023-04-01T21:00:59;6.50;;;3.67;;
25637;SDS011;13496;51.040;13.680;2023-04-01T21:11:56;6.78;;;3.75;;
25637;SDS011;13496;51.040;13.680;2023-04-01T21:33:07;5.70;;;3.28;;
25637;SDS011;13496;51.040;13.680;2023-04-01T21:38:37;4.68;;;3.45;;
25637;SDS011;13496;51.040;13.680;2023-04-01T22:00:12;3.92;;;3.03;;
25637;SDS011;13496;51.040;13.680;2023-04-01T22:05:19;4.13;;;3.30;;
25637;SDS011;13496;51.040;13.680;2023-04-01T22:10:49;4.03;;;3.22;;
25637;SDS011;13496;51.040;13.680;2023-04-01T22:21:12;3.95;;;3.17;;
25637;SDS011;13496;51.040;13.680;2023-04-01T22:26:28;3.55;;;3.10;;
25637;SDS011;13496;51.040;13.680;2023-04-01T22:31:41;5.43;;;3.15;;
25637;SDS011;13496;51.040;13.680;2023-04-01T22:36:50;4.45;;;2.78;;
25637;SDS011;13496;51.040;13.680;2023-04-01T22:47:38;3.75;;;3.10;;
25637;SDS011;13496;51.040;13.680;2023-04-01T22:52:47;6.20;;;3.08;;
25637;SDS011;13496;51.040;13.680;2023-04-01T22:58:13;2.63;;;2.42;;
25637;SDS011;13496;51.040;13.680;2023-04-01T23:03:33;4.38;;;3.10;;
25637;SDS011;13496;51.040;13.680;2023-04-01T23:19:27;3.45;;;2.90;;
25637;SDS011;13496;51.040;13.680;2023-04-01T23:24:41;3.43;;;3.00;;
25637;SDS011;13496;51.040;13.680;2023-04-01T23:29:52;3.22;;;2.63;;
25637;SDS011;13496;51.040;13.680;2023-04-01T23:34:54;3.97;;;2.72;;
25637;SDS011;13496;51.040;13.680;2023-04-01T23:39:58;3.55;;;2.67;;
25637;SDS011;13496;51.040;13.680;2023-04-01T23:45:03;3.08;;;2.50;;
25637;SDS011;13496;51.040;13.680;2023-04-01T23:50:13;3.67;;;2.65;;
25637;SDS011;13496;51.040;13.680;2023-04-01T23:55:22;3.72;;;2.85;;
